Time;durP1;ratioP1;P1;durP2;ratioP2;P2;SDS_P1;SDS_P2;PMS_P1;PMS_P2;Temp;Humidity;BMP_temperature;BMP_pressure;BME280_temperature;BME280_humidity;BME280_pressure;Samples;Min_cycle;Max_cycle;Signal;HPM_P1;HPM_P2
2021/07/09 00:00:48;;;;;;;8.67;6.73;;;;;;;15.11;90.70;101406.59;702627;28;1117;-54
2021/07/09 00:01:09;;;;;;;8.18;7.13;;;;;;;15.11;90.84;101410.06;703650;28;995;-57
2021/07/09 00:01:30;;;;;;;8.88;7.70;;;;;;;15.09;91.24;101410.97;702489;28;1102;-56
2021/07/09 00:01:50;;;;;;;10.90;7.72;;;;;;;15.06;91.93;101408.38;702180;28;3527;-54
2021/07/09 00:02:11;;;;;;;10.43;8.13;;;;;;;15.05;92.14;101411.91;702302;28;1156;-55
2021/07/09 00:02:35;;;;;;;10.30;8.15;;;;;;;15.03;92.28;101411.06;702497;28;1316;-55
2021/07/09 00:03:02;;;;;;;11.63;8.05;;;;;;;15.02;92.34;101412.81;702551;28;1333;-54
2021/07/09 00:03:22;;;;;;;10.02;8.30;;;;;;;15.00;92.44;101411.97;698651;28;4941;-55
2021/07/09 00:03:43;;;;;;;10.85;8.27;;;;;;;15.00;92.71;101408.47;699080;28;1265;-54
2021/07/09 00:04:03;;;;;;;11.50;8.30;;;;;;;14.97;92.59;101407.59;699927;28;1265;-52
2021/07/09 00:04:25;;;;;;;9.65;7.93;;;;;;;15.00;91.78;101419.00;699802;28;1288;-51
2021/07/09 00:04:45;;;;;;;9.95;7.30;;;;;;;15.01;91.82;101418.09;699545;28;3567;-54
2021/07/09 00:05:06;;;;;;;9.83;7.30;;;;;;;15.02;92.00;101417.22;700154;28;1029;-54
2021/07/09 00:05:26;;;;;;;10.25;7.80;;;;;;;15.00;92.41;101409.31;699270;28;1011;-56
2021/07/09 00:05:46;;;;;;;11.20;8.15;;;;;;;14.98;92.59;101417.25;700163;28;1508;-57
2021/07/09 00:06:07;;;;;;;10.90;8.40;;;;;;;14.98;92.58;101413.72;700727;28;4297;-55
2021/07/09 00:06:27;;;;;;;10.77;8.57;;;;;;;14.98;92.84;101419.88;703034;28;1094;-57
2021/07/09 00:06:48;;;;;;;10.93;8.43;;;;;;;14.98;92.84;101422.50;702818;27;849;-53
2021/07/09 00:07:09;;;;;;;11.13;8.35;;;;;;;14.97;93.02;101420.75;701326;28;1260;-56
2021/07/09 00:07:29;;;;;;;10.48;8.32;;;;;;;14.97;93.12;101415.50;703534;28;1374;-54
2021/07/09 00:07:50;;;;;;;10.87;8.40;;;;;;;14.97;93.18;101418.13;701193;28;3697;-53
2021/07/09 00:08:10;;;;;;;10.53;8.40;;;;;;;14.98;93.15;101419.88;701797;28;934;-55
2021/07/09 00:08:30;;;;;;;10.80;8.23;;;;;;;14.95;92.84;101414.66;702643;28;1423;-53
2021/07/09 00:08:51;;;;;;;10.80;8.00;;;;;;;14.95;92.83;101414.66;700563;28;1240;-55
2021/07/09 00:09:12;;;;;;;9.32;7.95;;;;;;;14.94;93.00;101415.53;700414;28;4312;-56
2021/07/09 00:09:33;;;;;;;12.93;8.80;;;;;;;14.95;93.06;101414.66;700601;28;1582;-52
2021/07/09 00:09:53;;;;;;;13.68;8.50;;;;;;;14.94;93.14;101419.94;702830;28;1257;-56
2021/07/09 00:10:14;;;;;;;12.67;8.80;;;;;;;14.94;92.95;101419.94;703126;28;1117;-53
2021/07/09 00:10:34;;;;;;;11.93;8.65;;;;;;;14.93;92.74;101416.41;702219;28;1196;-55
2021/07/09 00:10:54;;;;;;;12.50;7.97;;;;;;;14.96;92.42;101416.38;702203;28;3723;-55
2021/07/09 00:11:16;;;;;;;11.60;7.13;;;;;;;14.98;92.29;101424.25;702456;28;1295;-55
2021/07/09 00:11:38;;;;;;;10.35;7.20;;;;;;;14.98;92.25;101417.25;703153;28;1273;-53
2021/07/09 00:11:59;;;;;;;11.00;7.20;;;;;;;14.99;92.10;101423.38;703204;28;1126;-55
2021/07/09 00:12:19;;;;;;;9.73;7.50;;;;;;;15.01;92.06;101420.72;702019;28;4634;-54
2021/07/09 00:12:40;;;;;;;8.95;7.32;;;;;;;15.01;91.99;101418.97;702383;28;1580;-54
2021/07/09 00:13:00;;;;;;;9.23;7.30;;;;;;;15.02;91.70;101420.69;703596;28;1237;-55
2021/07/09 00:13:21;;;;;;;8.80;7.20;;;;;;;15.03;91.81;101416.31;703527;28;1264;-57
2021/07/09 00:13:41;;;;;;;8.35;7.00;;;;;;;15.05;91.66;101423.31;703298;28;1084;-55
2021/07/09 00:14:02;;;;;;;9.60;7.03;;;;;;;15.06;91.46;101422.41;702740;28;3825;-54
2021/07/09 00:14:36;;;;;;;10.35;6.97;;;;;;;15.06;91.42;101417.16;702445;28;1262;-56
2021/07/09 00:14:57;;;;;;;11.82;7.10;;;;;;;15.06;91.67;101422.41;703080;28;1149;-54
2021/07/09 00:15:18;;;;;;;9.50;7.25;;;;;;;15.07;91.53;101418.03;702342;28;4476;-52
2021/07/09 00:15:38;;;;;;;10.53;7.30;;;;;;;15.07;91.73;101423.31;703165;28;1217;-54
2021/07/09 00:16:02;;;;;;;9.20;7.83;;;;;;;15.04;91.91;101413.69;702910;28;1095;-56
2021/07/09 00:16:22;;;;;;;9.82;8.18;;;;;;;15.03;92.16;101418.97;701885;28;1218;-56
2021/07/09 00:16:47;;;;;;;10.80;8.20;;;;;;;15.02;92.11;101419.84;702512;28;2381;-55
2021/07/09 00:17:07;;;;;;;10.07;7.25;;;;;;;15.03;91.92;101421.59;702953;28;1426;-54
2021/07/09 00:17:30;;;;;;;8.80;7.07;;;;;;;15.03;91.67;101414.56;703328;28;1421;-57
2021/07/09 00:17:50;;;;;;;9.48;7.70;;;;;;;15.03;91.71;101422.44;702553;28;1095;-55
2021/07/09 00:18:11;;;;;;;9.93;7.70;;;;;;;15.02;91.68;101420.69;703318;28;1181;-53
2021/07/09 00:18:32;;;;;;;9.52;8.00;;;;;;;15.01;91.97;101418.97;695652;28;4990;-57
2021/07/09 00:18:52;;;;;;;8.90;8.00;;;;;;;15.01;92.16;101418.97;701978;28;1320;-57
2021/07/09 00:19:13;;;;;;;9.50;8.00;;;;;;;15.00;92.36;101424.28;703110;28;1333;-56
2021/07/09 00:19:34;;;;;;;11.80;8.50;;;;;;;15.00;92.63;101419.88;702441;28;1952;-55
2021/07/09 00:19:54;;;;;;;11.90;8.40;;;;;;;15.00;92.74;101419.00;702959;28;4082;-53
2021/07/09 00:20:15;;;;;;;10.32;8.30;;;;;;;14.99;93.04;101418.09;702214;28;1245;-57
2021/07/09 00:20:35;;;;;;;12.53;8.70;;;;;;;15.00;93.24;101416.38;702838;28;1089;-54
2021/07/09 00:20:56;;;;;;;14.00;9.00;;;;;;;15.00;92.95;101416.38;702501;28;1205;-56
2021/07/09 00:21:16;;;;;;;13.00;8.75;;;;;;;15.00;92.96;101421.63;702770;28;4737;-55
2021/07/09 00:21:37;;;;;;;10.68;9.07;;;;;;;14.99;93.08;101418.09;702541;28;2989;-56
2021/07/09 00:21:59;;;;;;;11.98;9.00;;;;;;;15.00;93.23;101416.38;703683;28;1133;-52
2021/07/09 00:22:20;;;;;;;12.10;8.68;;;;;;;14.97;93.22;101422.53;702671;28;1047;-53
2021/07/09 00:22:40;;;;;;;13.87;9.17;;;;;;;14.96;93.41;101421.66;702961;28;3502;-57
2021/07/09 00:23:01;;;;;;;12.98;9.15;;;;;;;14.96;93.15;101423.41;702046;28;1254;-53
2021/07/09 00:23:21;;;;;;;10.93;8.50;;;;;;;14.93;93.20;101421.69;702732;28;1211;-52
2021/07/09 00:23:43;;;;;;;10.48;8.02;;;;;;;14.94;93.10;101428.69;703817;28;1161;-57
2021/07/09 00:24:05;;;;;;;10.02;7.95;;;;;;;14.93;92.65;101421.69;702480;28;1304;-56
2021/07/09 00:24:25;;;;;;;10.18;8.00;;;;;;;14.95;92.46;101424.28;702627;28;4570;-53
2021/07/09 00:24:45;;;;;;;10.15;8.00;;;;;;;14.95;92.71;101419.03;702998;28;1121;-53
2021/07/09 00:25:08;;;;;;;9.93;8.07;;;;;;;14.96;92.87;101424.28;701850;28;1068;-51
2021/07/09 00:25:29;;;;;;;12.63;7.97;;;;;;;14.96;93.10;101421.66;701980;28;3752;-53
2021/07/09 00:25:49;;;;;;;12.87;8.70;;;;;;;14.95;93.35;101430.44;702725;28;3572;-53
2021/07/09 00:26:10;;;;;;;12.18;8.57;;;;;;;14.94;93.37;101423.44;702621;28;1592;-54
2021/07/09 00:26:31;;;;;;;10.95;8.43;;;;;;;14.95;93.47;101425.19;702829;28;1157;-53
2021/07/09 00:26:52;;;;;;;10.70;8.70;;;;;;;14.94;93.31;101425.22;703226;28;1176;-54
2021/07/09 00:27:12;;;;;;;11.20;8.83;;;;;;;14.93;93.18;101426.09;700182;28;4371;-53
2021/07/09 00:27:32;;;;;;;11.88;9.10;;;;;;;14.91;92.60;101426.09;700818;28;1432;-52
2021/07/09 00:27:53;;;;;;;11.43;8.50;;;;;;;14.92;92.32;101422.56;699931;28;1122;-56
2021/07/09 00:28:13;;;;;;;8.88;7.63;;;;;;;14.94;92.11;101423.44;700753;28;1075;-54
2021/07/09 00:28:34;;;;;;;9.77;7.70;;;;;;;14.96;91.95;101424.28;700709;28;1869;-54
2021/07/09 00:28:55;;;;;;;9.38;7.70;;;;;;;14.97;92.33;101427.81;700071;28;1023;-56
2021/07/09 00:29:15;;;;;;;8.65;7.35;;;;;;;14.97;92.17;101425.16;702826;28;1197;-54
2021/07/09 00:29:35;;;;;;;8.70;7.23;;;;;;;14.97;92.30;101420.75;703594;28;1090;-57
2021/07/09 00:29:56;;;;;;;10.30;7.57;;;;;;;14.98;92.20;101430.41;703442;28;1141;-56
2021/07/09 00:30:16;;;;;;;10.87;8.13;;;;;;;14.97;92.65;101423.41;702205;28;5444;-52
2021/07/09 00:30:37;;;;;;;10.60;7.97;;;;;;;14.97;92.92;101427.81;702734;28;1150;-56
2021/07/09 00:30:57;;;;;;;8.73;7.55;;;;;;;14.96;92.60;101426.91;702716;28;1174;-56
2021/07/09 00:31:18;;;;;;;9.05;7.90;;;;;;;14.95;93.08;101425.19;703317;28;1193;-54
2021/07/09 00:31:38;;;;;;;10.40;8.40;;;;;;;14.96;91.95;101424.28;701979;28;4102;-56
2021/07/09 00:31:58;;;;;;;10.80;8.35;;;;;;;14.96;92.11;101424.28;700374;28;1343;-53
2021/07/09 00:32:19;;;;;;;10.50;7.83;;;;;;;15.00;91.48;101426.91;702763;28;1913;-52
2021/07/09 00:32:40;;;;;;;9.87;7.90;;;;;;;14.98;91.94;101427.78;700759;28;1280;-54
2021/07/09 00:33:00;;;;;;;10.55;8.18;;;;;;;14.99;92.37;101426.00;700611;28;1262;-54
2021/07/09 00:33:20;;;;;;;10.63;8.27;;;;;;;15.00;92.64;101432.16;699567;28;4482;-56
2021/07/09 00:33:41;;;;;;;10.90;8.32;;;;;;;14.98;92.71;101425.16;700536;28;1137;-54
2021/07/09 00:34:06;;;;;;;11.17;8.30;;;;;;;14.99;92.91;101431.28;702414;28;1258;-54
2021/07/09 00:34:26;;;;;;;10.60;8.35;;;;;;;14.99;93.06;101431.28;701725;28;3776;-56
2021/07/09 00:34:46;;;;;;;11.05;8.65;;;;;;;14.98;93.09;101433.03;699569;28;4475;-55
2021/07/09 00:35:07;;;;;;;9.70;8.70;;;;;;;14.99;93.16;101431.28;700100;28;2504;-55
2021/07/09 00:35:28;;;;;;;13.80;8.55;;;;;;;14.97;93.26;101431.28;700270;28;1020;-54
2021/07/09 00:35:48;;;;;;;12.75;8.38;;;;;;;14.97;93.38;101433.06;700472;28;1055;-53
2021/07/09 00:36:09;;;;;;;10.90;8.57;;;;;;;14.96;93.70;101439.22;700700;28;1055;-54
2021/07/09 00:36:29;;;;;;;10.60;8.60;;;;;;;14.95;93.71;101440.97;702143;28;5139;-53
2021/07/09 00:36:50;;;;;;;10.77;8.63;;;;;;;14.94;93.79;101438.38;702900;28;1059;-52
2021/07/09 00:37:10;;;;;;;11.10;8.68;;;;;;;14.91;93.81;101434.00;702544;28;1066;-52
2021/07/09 00:37:30;;;;;;;12.07;8.80;;;;;;;14.92;93.64;101435.72;700703;28;3514;-54
2021/07/09 00:37:51;;;;;;;10.93;8.80;;;;;;;14.91;93.27;101439.28;702002;28;1340;-57
2021/07/09 00:38:11;;;;;;;9.50;8.43;;;;;;;14.91;92.55;101427.84;697309;28;1157;-56
2021/07/09 00:38:31;;;;;;;12.83;8.43;;;;;;;14.92;92.76;101426.97;694701;28;1604;-54
2021/07/09 00:38:52;;;;;;;11.15;8.65;;;;;;;14.93;93.12;101431.34;693608;28;1135;-56
2021/07/09 00:39:13;;;;;;;10.77;8.37;;;;;;;14.93;92.97;101431.34;694839;28;4477;-53
2021/07/09 00:39:33;;;;;;;12.18;8.30;;;;;;;14.93;92.90;101431.34;697169;28;1205;-52
2021/07/09 00:39:53;;;;;;;10.10;8.10;;;;;;;14.95;92.61;101433.09;697731;28;1209;-57
2021/07/09 00:40:14;;;;;;;10.83;7.83;;;;;;;14.98;92.77;101432.16;703391;28;1054;-53
2021/07/09 00:40:35;;;;;;;9.95;8.30;;;;;;;14.98;92.74;101434.78;699844;28;4739;-54
2021/07/09 00:40:57;;;;;;;9.27;8.20;;;;;;;14.97;92.76;101439.19;699690;28;1328;-55
2021/07/09 00:41:18;;;;;;;9.38;8.02;;;;;;;14.97;92.57;101435.69;700539;28;1466;-56
2021/07/09 00:41:39;;;;;;;11.68;7.85;;;;;;;14.96;92.83;101434.81;700101;28;1139;-53
2021/07/09 00:41:59;;;;;;;12.33;8.40;;;;;;;14.96;93.32;101434.81;697689;28;1103;-52
2021/07/09 00:42:19;;;;;;;10.25;8.52;;;;;;;14.96;93.50;101428.69;697556;28;4463;-56
2021/07/09 00:42:40;;;;;;;11.03;8.50;;;;;;;14.95;93.60;101435.72;697574;28;1091;-52
2021/07/09 00:43:02;;;;;;;11.00;8.48;;;;;;;14.93;94.01;101432.22;697358;28;1262;-54
2021/07/09 00:43:22;;;;;;;12.05;8.75;;;;;;;14.93;93.92;101432.22;699306;28;2437;-57
2021/07/09 00:43:43;;;;;;;13.38;8.90;;;;;;;14.91;94.10;101428.75;699937;28;4268;-54
2021/07/09 00:44:05;;;;;;;13.80;8.65;;;;;;;14.89;93.98;101432.28;702011;28;1125;-52
2021/07/09 00:44:25;;;;;;;12.13;8.77;;;;;;;14.88;93.31;101434.00;703197;28;1337;-56
2021/07/09 00:44:45;;;;;;;12.20;8.60;;;;;;;14.88;93.38;101430.53;701861;28;1113;-57
2021/07/09 00:45:08;;;;;;;11.40;8.40;;;;;;;14.90;93.24;101426.13;702093;28;1064;-54
2021/07/09 00:45:29;;;;;;;11.35;8.40;;;;;;;14.91;93.09;101433.13;702356;28;4530;-53
2021/07/09 00:45:50;;;;;;;9.45;7.85;;;;;;;14.93;92.67;101426.09;703049;28;1132;-56
2021/07/09 00:46:11;;;;;;;10.82;8.25;;;;;;;14.95;92.97;101432.19;703101;28;1216;-51
2021/07/09 00:46:38;;;;;;;11.68;8.70;;;;;;;14.95;93.03;101433.09;703061;28;4201;-54
2021/07/09 00:46:59;;;;;;;11.75;8.10;;;;;;;14.93;93.36;101424.31;702594;28;1190;-55
2021/07/09 00:47:21;;;;;;;10.30;8.32;;;;;;;14.95;93.40;101424.28;699880;28;1510;-56
2021/07/09 00:47:47;;;;;;;12.30;8.68;;;;;;;14.93;93.45;101426.94;700497;28;1051;-52
2021/07/09 00:48:07;;;;;;;11.90;8.70;;;;;;;14.92;93.73;101425.19;701183;28;1098;-56
2021/07/09 00:48:28;;;;;;;9.27;8.27;;;;;;;14.92;93.61;101425.19;702093;28;4579;-55
2021/07/09 00:48:48;;;;;;;11.05;9.25;;;;;;;14.94;93.68;101427.84;702738;28;1050;-53
2021/07/09 00:49:12;;;;;;;11.23;9.43;;;;;;;14.93;93.67;101424.31;703429;28;1096;-52
2021/07/09 00:49:32;;;;;;;12.63;9.40;;;;;;;14.93;93.75;101426.94;702271;28;3499;-53
2021/07/09 00:49:53;;;;;;;12.33;9.23;;;;;;;14.93;93.77;101426.09;701607;28;1256;-52
2021/07/09 00:50:14;;;;;;;10.40;8.98;;;;;;;14.92;93.66;101425.19;702456;28;1418;-54
2021/07/09 00:50:35;;;;;;;11.10;9.05;;;;;;;14.92;93.71;101433.09;701988;28;1284;-56
2021/07/09 00:51:00;;;;;;;13.73;9.73;;;;;;;14.92;93.71;101425.19;701886;28;1358;-51
2021/07/09 00:51:20;;;;;;;11.63;9.50;;;;;;;14.91;93.83;101423.47;702311;28;4581;-54
2021/07/09 00:51:40;;;;;;;12.00;9.63;;;;;;;14.91;93.64;101423.47;702321;28;1395;-55
2021/07/09 00:52:01;;;;;;;12.63;9.67;;;;;;;14.90;93.64;101427.00;702746;28;1309;-56
2021/07/09 00:52:21;;;;;;;11.88;9.45;;;;;;;14.90;93.55;101420.88;702417;28;3976;-56
2021/07/09 00:52:43;;;;;;;13.23;9.37;;;;;;;14.90;93.49;101426.13;702833;28;1150;-55
2021/07/09 00:53:04;;;;;;;12.38;9.35;;;;;;;14.90;93.18;101426.13;702012;28;1289;-55
2021/07/09 00:53:24;;;;;;;13.18;9.10;;;;;;;14.91;93.22;101418.22;703478;28;1344;-52
2021/07/09 00:53:44;;;;;;;14.03;9.03;;;;;;;14.92;93.18;101427.84;703503;28;1356;-56
2021/07/09 00:54:05;;;;;;;11.00;8.77;;;;;;;14.93;93.01;101420.81;702149;28;1431;-55
2021/07/09 00:54:26;;;;;;;9.88;8.15;;;;;;;14.93;92.91;101420.81;701915;28;4593;-52
2021/07/09 00:54:46;;;;;;;10.20;8.30;;;;;;;14.93;92.93;101424.31;702999;28;1105;-56
2021/07/09 00:55:07;;;;;;;10.60;8.80;;;;;;;14.93;93.51;101416.41;702127;28;3839;-55
2021/07/09 00:55:28;;;;;;;13.27;9.65;;;;;;;14.93;93.92;101424.31;702972;27;2171;-52
2021/07/09 00:55:48;;;;;;;11.90;9.47;;;;;;;14.89;93.78;101419.97;702354;28;1001;-54
2021/07/09 00:56:08;;;;;;;11.85;9.60;;;;;;;14.88;94.07;101422.63;703146;28;1103;-56
2021/07/09 00:56:30;;;;;;;14.63;10.00;;;;;;;14.86;94.19;101419.16;701830;28;1213;-56
2021/07/09 00:56:51;;;;;;;14.07;9.45;;;;;;;14.85;94.08;101422.66;702413;28;1098;-55
2021/07/09 00:57:13;;;;;;;12.63;10.03;;;;;;;14.83;94.00;101417.41;698579;28;4650;-52
2021/07/09 00:57:37;;;;;;;13.15;9.57;;;;;;;14.81;93.84;101424.44;699815;28;1261;-54
2021/07/09 00:58:00;;;;;;;13.98;9.35;;;;;;;14.81;93.76;101416.53;699824;28;1237;-55
2021/07/09 00:58:21;;;;;;;12.85;9.75;;;;;;;14.82;93.27;101419.16;700527;28;2434;-56
2021/07/09 00:58:42;;;;;;;12.60;9.52;;;;;;;14.85;93.33;101415.63;701000;28;4171;-53
2021/07/09 00:59:03;;;;;;;12.57;8.77;;;;;;;14.88;93.07;101414.72;700855;28;1174;-54
2021/07/09 00:59:25;;;;;;;11.38;8.10;;;;;;;14.90;92.88;101416.47;703224;28;1411;-55
2021/07/09 00:59:45;;;;;;;11.25;8.10;;;;;;;14.92;92.49;101414.66;703419;28;1502;-55
2021/07/09 01:00:11;;;;;;;11.00;8.20;;;;;;;14.94;92.77;101422.56;702546;28;1076;-54
2021/07/09 01:00:32;;;;;;;13.20;8.90;;;;;;;14.95;92.86;101414.66;702515;28;4977;-53
2021/07/09 01:00:53;;;;;;;11.73;8.93;;;;;;;14.93;93.34;101421.69;703234;28;1126;-56
2021/07/09 01:01:14;;;;;;;13.18;9.00;;;;;;;14.90;93.65;101413.81;702375;28;2174;-52
2021/07/09 01:01:34;;;;;;;12.63;8.80;;;;;;;14.89;93.74;101412.06;702065;28;3898;-57
2021/07/09 01:01:59;;;;;;;13.67;9.07;;;;;;;14.89;93.74;101412.06;702976;28;1332;-51
2021/07/09 01:02:19;;;;;;;14.40;9.40;;;;;;;14.88;93.73;101414.72;702966;28;1259;-54
2021/07/09 01:02:40;;;;;;;13.83;9.20;;;;;;;14.88;93.90;101414.72;701974;28;1286;-52
2021/07/09 01:03:01;;;;;;;12.95;9.18;;;;;;;14.87;93.92;101410.34;701572;28;1366;-54
2021/07/09 01:03:21;;;;;;;13.37;9.20;;;;;;;14.86;93.86;101409.47;702184;28;4326;-56
2021/07/09 01:03:42;;;;;;;13.23;9.37;;;;;;;14.85;93.71;101413.00;703522;28;1486;-54
2021/07/09 01:04:02;;;;;;;15.63;9.50;;;;;;;14.83;93.09;101414.78;702635;28;2046;-55
2021/07/09 01:04:23;;;;;;;11.73;9.27;;;;;;;14.83;93.05;101414.78;702131;28;4647;-53
2021/07/09 01:04:43;;;;;;;10.80;9.03;;;;;;;14.86;92.92;101412.13;701987;28;1169;-57
2021/07/09 01:05:06;;;;;;;10.23;8.73;;;;;;;14.87;93.27;101412.97;700455;28;1213;-54
2021/07/09 01:05:26;;;;;;;11.27;8.52;;;;;;;14.88;93.25;101415.59;700848;28;1093;-54
2021/07/09 01:05:47;;;;;;;10.97;8.60;;;;;;;14.89;92.89;101419.97;701638;28;1106;-53
2021/07/09 01:06:08;;;;;;;11.05;8.18;;;;;;;14.89;92.57;101416.47;701414;28;1378;-54
2021/07/09 01:06:28;;;;;;;10.95;8.40;;;;;;;14.90;92.64;101415.59;700930;28;4325;-52
2021/07/09 01:06:49;;;;;;;10.43;8.47;;;;;;;14.91;92.67;101412.06;702089;28;1098;-57
2021/07/09 01:07:09;;;;;;;11.33;8.43;;;;;;;14.92;92.15;101416.44;702066;28;3578;-54
2021/07/09 01:07:29;;;;;;;8.90;7.47;;;;;;;14.94;91.80;101409.41;701730;28;1105;-55
2021/07/09 01:07:50;;;;;;;9.73;7.80;;;;;;;14.96;92.66;101416.38;702228;28;1335;-56
2021/07/09 01:08:12;;;;;;;13.20;8.88;;;;;;;14.95;93.10;101417.28;703167;28;1153;-55
2021/07/09 01:08:33;;;;;;;13.35;9.07;;;;;;;14.96;91.93;101411.13;703379;28;1130;-52
2021/07/09 01:08:54;;;;;;;11.38;8.40;;;;;;;14.98;91.94;101413.72;700851;28;1161;-51
2021/07/09 01:09:14;;;;;;;11.70;7.60;;;;;;;15.01;91.31;101411.09;702377;28;4329;-52
2021/07/09 01:09:35;;;;;;;9.40;7.50;;;;;;;15.01;92.31;101408.44;703148;28;1216;-52
2021/07/09 01:09:55;;;;;;;13.80;8.98;;;;;;;15.02;92.89;101411.94;703443;28;1214;-56
2021/07/09 01:10:18;;;;;;;13.33;9.30;;;;;;;15.01;93.27;101407.56;702001;28;4120;-55
2021/07/09 01:10:40;;;;;;;13.02;9.27;;;;;;;15.00;93.36;101405.84;703104;28;1274;-57
2021/07/09 01:11:01;;;;;;;12.13;9.35;;;;;;;14.99;93.71;101407.59;702264;28;1665;-53
2021/07/09 01:11:23;;;;;;;13.93;9.47;;;;;;;14.99;93.82;101410.22;701594;28;1130;-55
2021/07/09 01:11:50;;;;;;;15.05;9.57;;;;;;;14.98;93.30;101411.97;703068;28;1241;-57
2021/07/09 01:12:11;;;;;;;13.80;9.68;;;;;;;14.96;93.95;101405.84;701176;28;4350;-56
2021/07/09 01:12:31;;;;;;;12.40;9.70;;;;;;;14.94;93.80;101406.78;699133;28;1979;-55
2021/07/09 01:12:51;;;;;;;12.38;9.70;;;;;;;14.93;94.07;101405.88;699407;28;1127;-56
2021/07/09 01:13:13;;;;;;;12.13;9.70;;;;;;;14.91;94.13;101407.69;701169;28;2013;-56
2021/07/09 01:13:33;;;;;;;13.35;10.00;;;;;;;14.92;94.05;101405.91;702320;28;1261;-52
2021/07/09 01:13:54;;;;;;;15.00;10.10;;;;;;;14.92;94.00;101408.53;701233;28;1886;-55
2021/07/09 01:14:14;;;;;;;14.15;9.95;;;;;;;14.91;94.12;101402.41;701730;28;1296;-52
2021/07/09 01:14:36;;;;;;;14.23;9.87;;;;;;;14.91;94.14;101407.69;702385;28;1300;-53
2021/07/09 01:14:56;;;;;;;12.82;9.90;;;;;;;14.91;94.25;101406.78;702148;28;1284;-54
2021/07/09 01:15:18;;;;;;;18.17;10.33;;;;;;;14.89;93.99;101398.91;700570;28;4290;-57
2021/07/09 01:15:39;;;;;;;17.05;10.13;;;;;;;14.90;94.00;101410.34;701856;28;1301;-56
2021/07/09 01:15:59;;;;;;;13.93;9.52;;;;;;;14.89;94.07;101398.91;702532;28;3875;-55
2021/07/09 01:16:20;;;;;;;14.27;9.50;;;;;;;14.89;93.88;101401.53;702668;28;3407;-55
2021/07/09 01:16:40;;;;;;;13.23;9.88;;;;;;;14.89;92.92;101406.81;702432;28;1248;-54
2021/07/09 01:17:01;;;;;;;11.33;9.10;;;;;;;14.89;93.11;101404.19;702992;28;1363;-55
2021/07/09 01:17:22;;;;;;;12.05;9.10;;;;;;;14.91;93.15;101409.41;702823;28;1221;-55
2021/07/09 01:17:42;;;;;;;10.40;8.27;;;;;;;14.91;92.96;101399.78;703068;28;2618;-54
2021/07/09 01:18:04;;;;;;;12.02;8.32;;;;;;;14.92;93.02;101404.13;702097;28;1219;-54
2021/07/09 01:18:27;;;;;;;11.07;8.18;;;;;;;14.93;92.97;101405.88;702706;28;4326;-52
2021/07/09 01:18:47;;;;;;;11.82;8.40;;;;;;;14.92;93.39;101406.78;702364;28;1070;-55
2021/07/09 01:19:07;;;;;;;15.47;9.27;;;;;;;14.93;93.79;101405.03;702567;28;3914;-53
2021/07/09 01:19:28;;;;;;;14.10;9.67;;;;;;;14.91;93.92;101402.41;702846;28;1470;-54
2021/07/09 01:19:48;;;;;;;14.43;9.77;;;;;;;14.92;93.93;101404.13;701668;28;1398;-55
2021/07/09 01:20:12;;;;;;;14.70;9.80;;;;;;;14.91;93.86;101407.69;703068;28;1201;-56
2021/07/09 01:20:32;;;;;;;11.57;9.43;;;;;;;14.91;93.99;101401.53;699731;28;1122;-52
2021/07/09 01:20:53;;;;;;;11.40;9.18;;;;;;;14.91;93.91;101402.41;698142;28;1332;-57
2021/07/09 01:21:14;;;;;;;11.95;9.30;;;;;;;14.90;94.14;101398.03;698069;28;4481;-57
2021/07/09 01:21:34;;;;;;;11.73;9.47;;;;;;;14.90;94.38;101405.94;699523;28;1265;-56
2021/07/09 01:21:55;;;;;;;14.20;9.63;;;;;;;14.89;94.36;101398.06;699725;28;2887;-54
2021/07/09 01:22:16;;;;;;;14.52;9.95;;;;;;;14.90;94.26;101402.44;701697;28;3973;-53
2021/07/09 01:22:39;;;;;;;14.25;9.75;;;;;;;14.88;94.51;101406.84;702755;28;1382;-54
2021/07/09 01:23:01;;;;;;;14.85;10.05;;;;;;;14.87;94.55;101397.19;702106;28;1042;-56
2021/07/09 01:23:26;;;;;;;15.82;10.20;;;;;;;14.88;94.48;101401.56;702220;28;1351;-54
2021/07/09 01:23:49;;;;;;;14.20;10.00;;;;;;;14.88;94.57;101397.16;701803;28;1029;-54
2021/07/09 01:24:10;;;;;;;13.48;9.63;;;;;;;14.87;94.25;101400.72;702679;28;1062;-53
2021/07/09 01:24:31;;;;;;;14.40;9.95;;;;;;;14.87;94.41;101394.56;703295;28;4605;-52
2021/07/09 01:24:52;;;;;;;13.65;9.73;;;;;;;14.85;94.77;101394.56;702276;28;2476;-53
2021/07/09 01:25:19;;;;;;;13.30;9.68;;;;;;;14.86;94.62;101398.94;702553;28;3828;-54
2021/07/09 01:25:39;;;;;;;12.13;9.77;;;;;;;14.87;94.55;101399.81;702293;28;1258;-56
2021/07/09 01:26:00;;;;;;;15.40;10.40;;;;;;;14.86;94.64;101393.69;702932;28;1197;-53
2021/07/09 01:26:20;;;;;;;14.00;9.93;;;;;;;14.86;94.38;101398.09;700371;28;1252;-56
2021/07/09 01:26:41;;;;;;;13.70;9.33;;;;;;;14.84;94.53;101398.09;697965;28;1261;-52
2021/07/09 01:27:02;;;;;;;13.68;9.52;;;;;;;14.82;94.45;101397.25;698364;28;1388;-51
2021/07/09 01:27:23;;;;;;;13.10;9.30;;;;;;;14.81;94.46;101395.50;698932;28;4434;-57
2021/07/09 01:27:46;;;;;;;13.43;9.50;;;;;;;14.81;94.31;101395.50;699775;28;1412;-53
2021/07/09 01:28:08;;;;;;;12.77;9.68;;;;;;;14.81;94.66;101393.75;699151;28;2280;-53
2021/07/09 01:28:28;;;;;;;13.13;9.93;;;;;;;14.81;94.61;101390.22;702955;28;1049;-55
2021/07/09 01:28:48;;;;;;;15.13;10.20;;;;;;;14.81;94.62;101399.00;701605;27;1300;-53
2021/07/09 01:29:10;;;;;;;14.60;10.30;;;;;;;14.81;94.76;101400.75;703230;28;1078;-56
2021/07/09 01:29:31;;;;;;;14.38;9.60;;;;;;;14.79;94.93;101397.28;703445;28;1279;-53
2021/07/09 01:29:51;;;;;;;13.45;9.43;;;;;;;14.79;94.87;101397.28;701599;28;1193;-55
2021/07/09 01:30:15;;;;;;;13.93;9.80;;;;;;;14.79;94.91;101398.13;701919;28;4443;-56
2021/07/09 01:30:37;;;;;;;14.52;9.85;;;;;;;14.78;94.79;101396.38;702476;28;1267;-54
2021/07/09 01:30:58;;;;;;;13.57;9.85;;;;;;;14.77;94.79;101397.31;701152;28;3281;-53
2021/07/09 01:31:18;;;;;;;12.43;9.57;;;;;;;14.78;94.90;101396.38;702326;28;1556;-51
2021/07/09 01:31:38;;;;;;;11.43;9.70;;;;;;;14.79;94.80;101395.50;702787;28;1471;-53
2021/07/09 01:31:59;;;;;;;13.00;9.37;;;;;;;14.79;94.73;101398.13;701988;28;1256;-55
2021/07/09 01:32:19;;;;;;;12.30;8.97;;;;;;;14.80;94.51;101399.00;701190;28;1969;-52
2021/07/09 01:32:40;;;;;;;12.80;9.20;;;;;;;14.79;94.47;101394.66;702864;28;1217;-52
2021/07/09 01:33:01;;;;;;;10.77;9.38;;;;;;;14.79;94.39;101392.03;701714;28;1205;-55
2021/07/09 01:33:21;;;;;;;12.63;9.10;;;;;;;14.77;94.23;101389.41;702273;28;4433;-51
2021/07/09 01:33:41;;;;;;;11.60;8.53;;;;;;;14.78;94.34;101392.91;702643;28;3003;-52
2021/07/09 01:34:04;;;;;;;11.07;8.80;;;;;;;14.78;94.61;101393.75;701668;28;3827;-56
2021/07/09 01:34:25;;;;;;;12.07;9.13;;;;;;;14.77;94.45;101392.03;703065;28;1166;-53
2021/07/09 01:34:45;;;;;;;13.25;8.88;;;;;;;14.78;94.16;101396.38;702248;28;1054;-55
2021/07/09 01:35:06;;;;;;;12.67;8.53;;;;;;;14.79;94.00;101397.28;701828;28;1376;-55
2021/07/09 01:35:28;;;;;;;11.77;8.90;;;;;;;14.79;93.96;101397.28;702089;28;1174;-55
2021/07/09 01:35:48;;;;;;;10.95;8.85;;;;;;;14.78;94.08;101390.25;698716;28;2181;-56
2021/07/09 01:36:08;;;;;;;13.35;9.15;;;;;;;14.79;94.27;101397.28;699986;28;1263;-55
2021/07/09 01:36:29;;;;;;;11.67;8.90;;;;;;;14.80;94.28;101401.63;698531;28;4311;-55
2021/07/09 01:36:50;;;;;;;12.95;9.02;;;;;;;14.79;94.56;101392.88;697064;28;3946;-54
2021/07/09 01:37:15;;;;;;;12.23;8.90;;;;;;;14.78;94.37;101390.25;700552;28;1257;-52
2021/07/09 01:37:35;;;;;;;12.48;8.82;;;;;;;14.78;94.45;101391.13;700764;28;1552;-54
2021/07/09 01:38:01;;;;;;;12.00;9.07;;;;;;;14.77;94.47;101384.16;702477;28;1420;-55
2021/07/09 01:38:22;;;;;;;11.43;8.55;;;;;;;14.77;94.30;101388.50;697784;28;1167;-55
2021/07/09 01:38:42;;;;;;;10.75;7.93;;;;;;;14.77;93.91;101389.41;698531;28;1345;-56
2021/07/09 01:39:04;;;;;;;9.90;7.63;;;;;;;14.79;93.73;101387.63;700199;28;1381;-54
2021/07/09 01:39:24;;;;;;;12.13;8.35;;;;;;;14.80;94.08;101391.09;699985;28;4331;-57
2021/07/09 01:39:45;;;;;;;15.60;8.97;;;;;;;14.79;94.32;101387.63;698913;28;3293;-56
2021/07/09 01:40:11;;;;;;;12.10;8.85;;;;;;;14.78;94.68;101390.25;699636;28;3842;-53